createdAt,value
2022-10-13T00:00:51.916Z,63.72
2022-10-13T00:01:53.395Z,63.79
2022-10-13T00:02:54.990Z,64.22
2022-10-13T00:03:56.516Z,64.16
2022-10-13T00:04:57.950Z,64.29
2022-10-13T00:06:00.145Z,64.27
2022-10-13T00:07:01.642Z,64.41
2022-10-13T00:08:03.199Z,64.50
2022-10-13T00:09:05.410Z,64.43
2022-10-13T00:10:06.943Z,64.52
2022-10-13T00:11:12.975Z,64.58
2022-10-13T00:12:14.427Z,64.52
2022-10-13T00:13:15.867Z,64.51
2022-10-13T00:14:17.638Z,64.44
2022-10-13T00:15:19.413Z,64.58
2022-10-13T00:16:20.951Z,64.70
2022-10-13T00:17:22.526Z,64.72
2022-10-13T00:18:23.984Z,64.67
2022-10-13T00:19:25.443Z,65.10
2022-10-13T00:20:26.956Z,64.98
2022-10-13T00:21:28.462Z,64.99
2022-10-13T00:22:29.923Z,65.15
2022-10-13T00:23:31.412Z,65.11
2022-10-13T00:24:32.850Z,65.14
2022-10-13T00:25:34.274Z,65.33
2022-10-13T00:26:35.760Z,65.03
2022-10-13T00:27:39.807Z,64.97
2022-10-13T00:28:41.291Z,64.86
2022-10-13T00:29:42.766Z,64.77
2022-10-13T00:30:44.323Z,64.75
2022-10-13T00:31:45.825Z,64.71
2022-10-13T00:32:47.327Z,64.61
2022-10-13T00:33:49.411Z,64.47
2022-10-13T00:34:52.966Z,64.32
2022-10-13T00:35:55.377Z,64.20
2022-10-13T00:36:56.842Z,63.91
2022-10-13T00:37:59.168Z,63.84
2022-10-13T00:39:04.851Z,63.68
2022-10-13T00:40:07.515Z,63.77
2022-10-13T00:41:08.956Z,63.54
2022-10-13T00:42:11.987Z,63.59
2022-10-13T00:43:17.602Z,63.57
2022-10-13T00:44:37.879Z,63.41
2022-10-13T00:45:39.440Z,63.31
2022-10-13T00:46:40.875Z,63.22
2022-10-13T00:47:43.623Z,63.37
2022-10-13T00:48:45.190Z,63.30
2022-10-13T00:49:46.663Z,63.42
2022-10-13T00:50:48.093Z,63.26
2022-10-13T00:51:49.613Z,63.16
2022-10-13T00:52:51.357Z,63.26
2022-10-13T00:53:53.591Z,63.22
2022-10-13T00:54:57.474Z,63.27
2022-10-13T00:56:00.175Z,63.32
2022-10-13T00:57:02.848Z,63.39
2022-10-13T00:58:05.661Z,63.26
2022-10-13T00:59:09.259Z,63.27
2022-10-13T01:00:11.309Z,63.40
2022-10-13T01:01:12.875Z,63.42
2022-10-13T01:02:14.370Z,63.30
2022-10-13T01:03:15.835Z,63.37
2022-10-13T01:04:17.507Z,63.29
2022-10-13T01:05:19.630Z,63.43
2022-10-13T01:06:23.638Z,63.44
2022-10-13T01:07:25.423Z,63.44
2022-10-13T01:08:27.295Z,63.33
2022-10-13T01:09:37.504Z,63.50
2022-10-13T01:10:58.049Z,63.42
2022-10-13T01:12:18.681Z,63.42
2022-10-13T01:13:40.633Z,63.50
2022-10-13T01:14:46.691Z,63.58
2022-10-13T01:15:53.893Z,63.60
2022-10-13T01:16:58.760Z,63.76
2022-10-13T01:18:06.373Z,63.75
2022-10-13T01:19:26.688Z,63.95
2022-10-13T01:20:37.379Z,63.90
2022-10-13T01:21:43.502Z,63.91
2022-10-13T01:22:53.725Z,63.80
2022-10-13T01:23:58.241Z,63.98
2022-10-13T01:25:18.198Z,63.75
2022-10-13T01:26:38.247Z,63.84
2022-10-13T01:27:51.874Z,63.98
2022-10-13T01:28:53.299Z,63.85
2022-10-13T01:30:08.057Z,63.84
2022-10-13T01:31:12.597Z,63.99
2022-10-13T01:32:17.517Z,63.86
2022-10-13T01:33:19.184Z,63.92
2022-10-13T01:34:23.748Z,63.81
2022-10-13T01:35:25.187Z,63.84
2022-10-13T01:36:49.982Z,63.88
2022-10-13T01:37:54.479Z,63.91
2022-10-13T01:38:59.491Z,63.84
2022-10-13T01:40:03.499Z,63.83
2022-10-13T01:41:10.611Z,63.84
2022-10-13T01:42:17.027Z,64.02
2022-10-13T01:43:31.234Z,64.06
2022-10-13T01:44:36.436Z,64.08
2022-10-13T01:45:42.678Z,64.03
2022-10-13T01:46:46.787Z,64.07
2022-10-13T01:47:48.267Z,64.18
2022-10-13T01:48:49.694Z,64.18
2022-10-13T01:49:51.119Z,64.16
2022-10-13T01:50:52.907Z,64.22
2022-10-13T01:51:54.574Z,64.22
2022-10-13T01:52:56.016Z,64.26
2022-10-13T01:53:57.467Z,64.32
2022-10-13T01:55:01.061Z,64.24
2022-10-13T01:56:02.523Z,64.33
2022-10-13T01:57:04.070Z,64.36
2022-10-13T01:58:05.525Z,64.38
2022-10-13T01:59:08.741Z,64.36
2022-10-13T02:00:11.333Z,64.50
2022-10-13T02:01:20.216Z,64.41
2022-10-13T02:02:24.066Z,64.48
2022-10-13T02:03:37.092Z,64.36
2022-10-13T02:04:41.289Z,64.38
2022-10-13T02:05:50.485Z,64.27
2022-10-13T02:06:53.028Z,64.39
2022-10-13T02:07:56.362Z,64.40
2022-10-13T02:09:05.689Z,64.48
2022-10-13T02:10:09.463Z,64.46
2022-10-13T02:11:12.932Z,64.43
2022-10-13T02:12:19.390Z,64.61
2022-10-13T02:13:22.079Z,64.69
2022-10-13T02:14:24.602Z,64.51
2022-10-13T02:15:28.643Z,64.45
2022-10-13T02:16:31.300Z,64.56
2022-10-13T02:17:32.863Z,64.56
2022-10-13T02:18:34.755Z,64.48
2022-10-13T02:19:37.103Z,64.55
2022-10-13T02:20:39.499Z,64.67
2022-10-13T02:21:41.333Z,64.73
2022-10-13T02:22:44.741Z,64.68
2022-10-13T02:23:46.245Z,64.56
2022-10-13T02:24:47.804Z,64.65
2022-10-13T02:25:50.998Z,64.68
2022-10-13T02:26:52.447Z,64.76
2022-10-13T02:27:54.847Z,64.76
2022-10-13T02:28:56.379Z,65.08
2022-10-13T02:29:57.878Z,64.82
2022-10-13T02:31:04.145Z,64.78
2022-10-13T02:32:05.675Z,65.13
2022-10-13T02:33:07.329Z,65.10
2022-10-13T02:34:09.932Z,65.16
2022-10-13T02:35:11.402Z,65.22
2022-10-13T02:36:12.827Z,65.12
2022-10-13T02:37:14.284Z,65.16
2022-10-13T02:38:15.926Z,65.31
2022-10-13T02:39:17.892Z,65.28
2022-10-13T02:40:19.423Z,65.31
2022-10-13T02:41:20.982Z,65.25
2022-10-13T02:42:22.953Z,65.05
2022-10-13T02:43:25.006Z,65.08
2022-10-13T02:44:26.508Z,64.92
2022-10-13T02:45:27.991Z,64.86
2022-10-13T02:46:29.571Z,64.62
2022-10-13T02:47:31.027Z,64.97
2022-10-13T02:48:33.990Z,65.27
2022-10-13T02:49:35.491Z,65.86
2022-10-13T02:50:36.978Z,66.87
2022-10-13T02:51:40.382Z,67.15
2022-10-13T02:52:42.040Z,67.37
2022-10-13T02:53:43.523Z,67.59
2022-10-13T02:54:44.985Z,67.68
2022-10-13T02:55:46.568Z,67.58
2022-10-13T02:56:48.270Z,67.61
2022-10-13T02:57:49.743Z,67.48
2022-10-13T02:58:51.843Z,67.50
2022-10-13T02:59:53.428Z,67.57
2022-10-13T03:00:55.020Z,67.55
2022-10-13T03:01:56.833Z,67.44
2022-10-13T03:02:58.583Z,67.46
2022-10-13T03:04:00.035Z,67.73
2022-10-13T03:05:01.567Z,67.63
2022-10-13T03:06:03.078Z,67.72
2022-10-13T03:07:04.539Z,67.83
2022-10-13T03:08:06.072Z,67.63
2022-10-13T03:09:07.639Z,67.62
2022-10-13T03:10:10.132Z,67.88
2022-10-13T03:11:11.596Z,67.92
2022-10-13T03:12:13.302Z,68.06
2022-10-13T03:13:14.738Z,67.95
2022-10-13T03:14:16.243Z,68.14
2022-10-13T03:15:17.779Z,68.87
2022-10-13T03:16:21.463Z,69.10
2022-10-13T03:17:22.952Z,68.92
2022-10-13T03:18:24.389Z,68.74
2022-10-13T03:19:25.899Z,68.72
2022-10-13T03:20:27.407Z,68.49
2022-10-13T03:21:28.863Z,68.44
2022-10-13T03:22:31.648Z,68.17
2022-10-13T03:23:33.251Z,68.26
2022-10-13T03:24:34.746Z,68.29
2022-10-13T03:25:36.213Z,68.28
2022-10-13T03:26:37.719Z,68.24
2022-10-13T03:27:39.178Z,68.25
2022-10-13T03:28:40.731Z,68.32
2022-10-13T03:29:42.260Z,68.53
2022-10-13T03:30:43.690Z,68.68
2022-10-13T03:31:45.239Z,68.60
2022-10-13T03:32:46.734Z,68.47
2022-10-13T03:33:50.763Z,68.54
2022-10-13T03:34:52.327Z,68.63
2022-10-13T03:35:53.796Z,68.54
2022-10-13T03:36:55.259Z,68.53
2022-10-13T03:37:56.739Z,68.45
2022-10-13T03:38:59.496Z,68.77
2022-10-13T03:40:00.966Z,68.67
2022-10-13T03:41:06.059Z,68.62
2022-10-13T03:42:07.611Z,68.72
2022-10-13T03:43:12.242Z,68.54
2022-10-13T03:44:13.724Z,68.63
2022-10-13T03:45:15.374Z,68.63
2022-10-13T03:46:17.528Z,68.47
2022-10-13T03:47:19.996Z,68.64
2022-10-13T03:48:21.607Z,68.55
2022-10-13T03:49:23.102Z,68.52
2022-10-13T03:50:24.571Z,68.57
2022-10-13T03:51:26.063Z,68.49
2022-10-13T03:52:27.492Z,68.54
2022-10-13T03:53:29.034Z,68.79
2022-10-13T03:54:30.500Z,68.64
2022-10-13T03:55:32.046Z,68.68
2022-10-13T03:56:33.562Z,68.90
2022-10-13T03:57:35.011Z,69.06
2022-10-13T03:58:36.487Z,69.15
2022-10-13T03:59:39.411Z,69.16
2022-10-13T04:00:40.891Z,69.21
2022-10-13T04:01:42.420Z,69.35
2022-10-13T04:02:43.917Z,69.09
2022-10-13T04:03:45.421Z,69.32
2022-10-13T04:04:46.867Z,69.25
2022-10-13T04:05:48.361Z,69.10
2022-10-13T04:06:49.915Z,69.25
2022-10-13T04:07:51.727Z,69.11
2022-10-13T04:08:54.835Z,69.11
2022-10-13T04:09:56.324Z,68.88
2022-10-13T04:10:58.595Z,68.83
2022-10-13T04:12:00.295Z,68.82
2022-10-13T04:13:01.764Z,68.90
2022-10-13T04:14:03.671Z,68.80
2022-10-13T04:15:05.352Z,68.60
2022-10-13T04:16:08.002Z,68.68
2022-10-13T04:17:09.511Z,68.54
2022-10-13T04:18:10.968Z,68.63
2022-10-13T04:19:12.772Z,68.59
2022-10-13T04:20:14.226Z,68.52
2022-10-13T04:21:15.770Z,68.48
2022-10-13T04:22:17.443Z,68.36
2022-10-13T04:23:22.546Z,68.52
2022-10-13T04:24:24.048Z,68.42
2022-10-13T04:25:25.478Z,68.47
2022-10-13T04:26:27.506Z,68.54
2022-10-13T04:27:29.015Z,68.38
2022-10-13T04:28:30.584Z,68.35
2022-10-13T04:29:32.168Z,68.21
2022-10-13T04:30:34.138Z,68.18
2022-10-13T04:31:35.638Z,68.24
2022-10-13T04:32:37.089Z,68.06
2022-10-13T04:33:38.705Z,68.17
2022-10-13T04:34:40.263Z,68.15
2022-10-13T04:35:41.939Z,68.22
2022-10-13T04:36:43.526Z,68.12
2022-10-13T04:37:45.363Z,68.49
2022-10-13T04:38:46.940Z,68.37
2022-10-13T04:39:48.482Z,68.36
2022-10-13T04:40:50.410Z,68.38
2022-10-13T04:41:51.906Z,68.38
2022-10-13T04:42:53.404Z,68.25
2022-10-13T04:43:55.105Z,68.34
2022-10-13T04:44:56.764Z,68.42
2022-10-13T04:46:06.162Z,68.25
2022-10-13T04:47:07.666Z,68.27
2022-10-13T04:48:09.128Z,68.18
2022-10-13T04:49:10.633Z,68.26
2022-10-13T04:50:12.998Z,68.40
2022-10-13T04:51:15.255Z,68.37
2022-10-13T04:52:16.952Z,68.50
2022-10-13T04:53:19.427Z,68.33
2022-10-13T04:54:21.010Z,68.29
2022-10-13T04:55:22.459Z,68.27
2022-10-13T04:56:23.908Z,68.29
2022-10-13T04:57:25.456Z,68.20
2022-10-13T04:58:26.902Z,68.25
2022-10-13T04:59:28.615Z,67.99
2022-10-13T05:00:30.162Z,67.99
2022-10-13T05:01:31.691Z,68.08
2022-10-13T05:02:35.034Z,68.02
2022-10-13T05:03:38.027Z,67.93
2022-10-13T05:04:39.508Z,67.83
2022-10-13T05:05:42.227Z,67.74
2022-10-13T05:07:12.591Z,67.41
2022-10-13T05:08:05.936Z,67.32
2022-10-13T05:09:07.387Z,67.43
2022-10-13T05:10:09.094Z,67.52
2022-10-13T05:11:10.537Z,67.63
2022-10-13T05:12:12.015Z,67.61
2022-10-13T05:13:13.705Z,67.75
2022-10-13T05:14:15.140Z,67.90
2022-10-13T05:15:16.610Z,68.11
2022-10-13T05:16:18.566Z,68.17
2022-10-13T05:17:20.059Z,68.31
2022-10-13T05:18:21.568Z,68.36
2022-10-13T05:19:23.326Z,69.40
2022-10-13T05:20:26.762Z,69.33
2022-10-13T05:21:28.578Z,69.25
2022-10-13T05:22:30.083Z,69.08
2022-10-13T05:23:31.614Z,69.24
2022-10-13T05:24:38.912Z,69.30
2022-10-13T05:25:40.493Z,69.14
2022-10-13T05:26:45.381Z,69.30
2022-10-13T05:27:46.979Z,69.34
2022-10-13T05:28:48.566Z,69.34
2022-10-13T05:29:50.074Z,69.74
2022-10-13T05:30:51.578Z,69.43
2022-10-13T05:31:53.059Z,69.45
2022-10-13T05:32:54.577Z,69.76
2022-10-13T05:33:56.519Z,69.57
2022-10-13T05:34:57.982Z,69.57
2022-10-13T05:36:03.879Z,69.93
2022-10-13T05:37:05.688Z,70.09
2022-10-13T05:38:07.869Z,69.97
2022-10-13T05:39:09.614Z,70.32
2022-10-13T05:40:11.343Z,70.69
2022-10-13T05:41:13.229Z,70.58
2022-10-13T05:42:14.947Z,70.73
2022-10-13T05:43:16.490Z,70.60
2022-10-13T05:44:17.947Z,70.69
2022-10-13T05:45:28.149Z,70.66
2022-10-13T05:46:29.638Z,70.64
2022-10-13T05:47:31.088Z,70.67
2022-10-13T05:48:32.595Z,70.63
2022-10-13T05:49:36.415Z,70.64
2022-10-13T05:50:37.927Z,70.99
2022-10-13T05:51:46.287Z,70.57
2022-10-13T05:52:47.819Z,70.60
2022-10-13T05:53:55.345Z,70.66
2022-10-13T05:55:00.411Z,70.87
2022-10-13T05:56:06.206Z,70.91
2022-10-13T05:57:16.506Z,70.87
2022-10-13T05:58:17.967Z,70.85
2022-10-13T05:59:23.334Z,71.03
2022-10-13T06:00:27.661Z,71.09
2022-10-13T06:01:31.077Z,70.93
2022-10-13T06:02:38.592Z,71.00
2022-10-13T06:03:40.165Z,70.97
2022-10-13T06:04:42.908Z,71.09
2022-10-13T06:05:45.305Z,71.10
2022-10-13T06:06:47.323Z,71.14
2022-10-13T06:07:48.750Z,71.18
2022-10-13T06:08:50.534Z,71.38
2022-10-13T06:09:52.021Z,71.29
2022-10-13T06:10:53.535Z,71.20
2022-10-13T06:11:58.409Z,71.10
2022-10-13T06:12:59.849Z,71.14
2022-10-13T06:14:01.374Z,71.28
2022-10-13T06:15:02.901Z,71.16
2022-10-13T06:16:04.516Z,71.26
2022-10-13T06:17:05.999Z,71.25
2022-10-13T06:18:08.967Z,71.34
2022-10-13T06:19:10.440Z,71.30
2022-10-13T06:20:11.916Z,71.23
2022-10-13T06:21:13.612Z,71.33
2022-10-13T06:22:15.624Z,71.38
2022-10-13T06:23:17.862Z,71.30
2022-10-13T06:24:19.358Z,71.16
2022-10-13T06:25:20.786Z,71.30
2022-10-13T06:26:22.251Z,71.44
2022-10-13T06:27:23.756Z,71.38
2022-10-13T06:28:28.047Z,71.40
2022-10-13T06:29:29.551Z,71.36
2022-10-13T06:30:31.102Z,71.29
2022-10-13T06:31:32.536Z,71.45
2022-10-13T06:32:34.035Z,71.34
2022-10-13T06:33:35.582Z,71.36
2022-10-13T06:34:37.086Z,71.26
2022-10-13T06:35:38.528Z,71.41
2022-10-13T06:36:42.143Z,71.40
2022-10-13T06:37:48.551Z,71.33
2022-10-13T06:38:50.079Z,71.31
2022-10-13T06:39:54.707Z,71.29
2022-10-13T06:40:59.320Z,71.05
2022-10-13T06:42:01.724Z,71.05
2022-10-13T06:43:04.072Z,70.94
2022-10-13T06:44:07.966Z,71.41
2022-10-13T06:45:09.683Z,71.50
2022-10-13T06:46:13.833Z,71.76
2022-10-13T06:47:15.587Z,71.58
2022-10-13T06:48:17.143Z,71.83
2022-10-13T06:49:18.660Z,71.78
2022-10-13T06:50:20.398Z,71.97
2022-10-13T06:51:21.923Z,71.93
2022-10-13T06:52:24.072Z,71.76
2022-10-13T06:53:25.586Z,71.77
2022-10-13T06:54:27.081Z,71.95
2022-10-13T06:55:28.604Z,71.85
2022-10-13T06:56:30.135Z,71.68
2022-10-13T06:57:33.634Z,71.62
2022-10-13T06:58:36.905Z,71.56
2022-10-13T06:59:38.345Z,71.34
2022-10-13T07:00:43.043Z,71.54
2022-10-13T07:01:45.212Z,71.54
2022-10-13T07:02:49.536Z,71.68
2022-10-13T07:03:51.196Z,71.66
2022-10-13T07:04:55.638Z,71.75
2022-10-13T07:06:00.942Z,71.62
2022-10-13T07:07:02.439Z,71.59
2022-10-13T07:08:03.991Z,71.40
2022-10-13T07:09:05.887Z,71.80
2022-10-13T07:10:07.546Z,72.02
2022-10-13T07:11:14.576Z,72.08
2022-10-13T07:12:17.566Z,72.45
2022-10-13T07:13:19.358Z,72.37
2022-10-13T07:14:20.834Z,72.26
2022-10-13T07:15:24.494Z,72.20
2022-10-13T07:16:26.818Z,72.21
2022-10-13T07:17:28.458Z,72.26
2022-10-13T07:18:29.942Z,72.15
2022-10-13T07:19:31.587Z,72.38
2022-10-13T07:20:33.123Z,72.63
2022-10-13T07:21:34.600Z,72.39
2022-10-13T07:22:36.156Z,72.15
2022-10-13T07:23:37.759Z,72.17
2022-10-13T07:24:39.199Z,71.98
2022-10-13T07:25:40.722Z,72.09
2022-10-13T07:26:42.831Z,72.50
2022-10-13T07:27:44.488Z,72.45
2022-10-13T07:28:46.150Z,72.55
2022-10-13T07:29:47.598Z,72.82
2022-10-13T07:30:49.145Z,72.78
2022-10-13T07:31:51.034Z,72.77
2022-10-13T07:32:52.485Z,73.15
2022-10-13T07:33:54.034Z,73.18
2022-10-13T07:35:01.954Z,73.31
2022-10-13T07:36:03.654Z,73.14
2022-10-13T07:37:05.100Z,73.25
2022-10-13T07:38:07.139Z,73.04
2022-10-13T07:39:09.173Z,72.76
2022-10-13T07:40:11.298Z,72.73
2022-10-13T07:41:12.929Z,72.62
2022-10-13T07:42:14.482Z,72.78
2022-10-13T07:43:16.075Z,72.73
2022-10-13T07:44:17.615Z,72.63
2022-10-13T07:45:19.101Z,72.51
2022-10-13T07:46:20.644Z,72.58
2022-10-13T07:47:22.501Z,72.44
2022-10-13T07:48:24.300Z,72.82
2022-10-13T07:49:25.819Z,72.78
2022-10-13T07:50:27.306Z,72.69
2022-10-13T07:51:28.846Z,72.73
2022-10-13T07:52:30.320Z,72.48
2022-10-13T07:53:31.829Z,72.51
2022-10-13T07:54:33.336Z,72.56
2022-10-13T07:55:34.931Z,72.72
2022-10-13T07:56:36.400Z,72.69
2022-10-13T07:57:39.011Z,72.57
2022-10-13T07:58:41.288Z,72.68
2022-10-13T07:59:42.754Z,72.65
2022-10-13T08:00:55.334Z,72.61
2022-10-13T08:02:00.644Z,72.61
2022-10-13T08:03:02.111Z,72.57
2022-10-13T08:04:03.656Z,72.30
2022-10-13T08:05:05.351Z,72.20
2022-10-13T08:06:06.939Z,72.09
2022-10-13T08:07:08.815Z,72.03
2022-10-13T08:08:10.283Z,72.13
2022-10-13T08:09:11.756Z,72.05
2022-10-13T08:10:13.690Z,72.02
2022-10-13T08:11:16.718Z,71.86
2022-10-13T08:12:18.994Z,71.93
2022-10-13T08:13:20.756Z,72.02
2022-10-13T08:14:22.232Z,72.04
2022-10-13T08:15:23.763Z,72.09
2022-10-13T08:16:25.220Z,71.91
2022-10-13T08:17:26.678Z,71.87
2022-10-13T08:18:28.274Z,71.84
2022-10-13T08:19:29.791Z,71.70
2022-10-13T08:20:41.011Z,72.00
2022-10-13T08:22:01.856Z,72.62
2022-10-13T08:23:03.951Z,72.82
2022-10-13T08:24:06.215Z,72.94
2022-10-13T08:25:07.814Z,73.00
2022-10-13T08:26:19.879Z,72.89
2022-10-13T08:27:22.227Z,72.70
2022-10-13T08:28:25.906Z,72.72
2022-10-13T08:29:27.471Z,72.66
2022-10-13T08:30:29.075Z,72.50
2022-10-13T08:31:30.762Z,72.41
2022-10-13T08:32:32.720Z,72.26
2022-10-13T08:33:34.187Z,72.03
2022-10-13T08:34:36.867Z,71.82
2022-10-13T08:35:38.798Z,71.99
2022-10-13T08:36:40.536Z,71.69
2022-10-13T08:37:42.059Z,71.61
2022-10-13T08:38:43.874Z,71.75
2022-10-13T08:39:45.454Z,71.97
2022-10-13T08:40:49.919Z,72.30
2022-10-13T08:41:51.392Z,72.56
2022-10-13T08:42:55.583Z,72.69
2022-10-13T08:44:41.274Z,72.69
2022-10-13T08:45:42.704Z,72.94
2022-10-13T08:46:47.479Z,72.83
2022-10-13T08:47:49.352Z,73.19
2022-10-13T08:48:50.844Z,73.09
2022-10-13T08:49:56.466Z,73.14
2022-10-13T08:51:01.019Z,72.81
2022-10-13T08:52:05.374Z,72.81
2022-10-13T08:53:12.825Z,72.88
2022-10-13T08:54:19.712Z,72.68
2022-10-13T08:55:25.450Z,72.74
2022-10-13T08:56:33.726Z,72.69
2022-10-13T08:57:35.211Z,72.65
2022-10-13T08:58:37.383Z,72.83
2022-10-13T08:59:39.555Z,72.78
2022-10-13T09:00:41.284Z,72.70
2022-10-13T09:01:43.291Z,72.89
2022-10-13T09:02:45.282Z,72.98
2022-10-13T09:03:47.715Z,72.99
2022-10-13T09:04:49.384Z,72.87
2022-10-13T09:06:05.615Z,72.89
2022-10-13T09:07:07.235Z,73.28
2022-10-13T09:08:12.036Z,73.61
2022-10-13T09:09:14.327Z,73.42
2022-10-13T09:10:18.730Z,73.56
2022-10-13T09:11:20.391Z,73.85
2022-10-13T09:12:24.318Z,73.93
2022-10-13T09:13:25.798Z,74.05
2022-10-13T09:14:29.801Z,74.17
2022-10-13T09:15:31.279Z,74.04
2022-10-13T09:16:34.919Z,73.65
2022-10-13T09:17:39.386Z,73.50
2022-10-13T09:18:40.894Z,73.37
2022-10-13T09:20:01.768Z,73.21
2022-10-13T09:21:17.276Z,73.48
2022-10-13T09:22:27.683Z,73.10
2022-10-13T09:23:29.121Z,73.23
2022-10-13T09:24:32.254Z,73.23
2022-10-13T09:25:40.683Z,73.05
2022-10-13T09:26:42.259Z,72.94
2022-10-13T09:27:46.767Z,73.04
2022-10-13T09:28:48.351Z,73.03
2022-10-13T09:29:49.815Z,73.00
2022-10-13T09:31:04.594Z,73.14
2022-10-13T09:32:14.939Z,73.41
2022-10-13T09:33:19.013Z,73.51
2022-10-13T09:34:20.442Z,73.40
2022-10-13T09:35:22.143Z,73.33
2022-10-13T09:36:23.566Z,73.24
2022-10-13T09:37:25.438Z,73.28
2022-10-13T09:38:26.891Z,73.40
2022-10-13T09:39:28.527Z,73.33
2022-10-13T09:40:32.145Z,73.21
2022-10-13T09:41:33.689Z,73.48
2022-10-13T09:42:35.117Z,73.37
2022-10-13T09:43:41.788Z,73.32
2022-10-13T09:44:43.204Z,73.16
2022-10-13T09:45:44.659Z,72.92
2022-10-13T09:46:47.828Z,72.89
2022-10-13T09:47:49.702Z,72.67
2022-10-13T09:48:52.306Z,72.57
2022-10-13T09:50:06.479Z,72.74
2022-10-13T09:51:27.203Z,72.63
2022-10-13T09:52:28.719Z,72.70
2022-10-13T09:53:49.260Z,72.57
2022-10-13T09:55:13.773Z,72.57
2022-10-13T09:56:17.947Z,72.66
2022-10-13T09:57:22.148Z,72.97
2022-10-13T09:58:27.812Z,72.88
2022-10-13T09:59:35.883Z,72.94
2022-10-13T10:00:37.310Z,72.92
2022-10-13T10:01:39.707Z,73.08
2022-10-13T10:02:45.309Z,73.33
2022-10-13T10:03:47.311Z,73.13
2022-10-13T10:04:48.792Z,73.22
2022-10-13T10:05:51.014Z,73.08
2022-10-13T10:06:52.502Z,73.22
2022-10-13T10:07:53.967Z,73.06
2022-10-13T10:09:03.423Z,73.07
2022-10-13T10:10:07.017Z,72.89
2022-10-13T10:11:10.825Z,73.04
2022-10-13T10:12:13.238Z,72.98
2022-10-13T10:13:14.744Z,72.94
2022-10-13T10:14:16.134Z,73.17
2022-10-13T10:15:21.419Z,73.11
2022-10-13T10:16:22.942Z,72.85
2022-10-13T10:17:36.756Z,72.95
2022-10-13T10:18:44.774Z,72.86
2022-10-13T10:19:55.029Z,72.80
2022-10-13T10:21:05.243Z,72.87
2022-10-13T10:22:14.280Z,73.19
2022-10-13T10:23:38.627Z,73.27
2022-10-13T10:24:46.815Z,73.29
2022-10-13T10:25:52.394Z,73.19
2022-10-13T10:26:55.571Z,73.03
2022-10-13T10:28:15.826Z,73.20
2022-10-13T10:29:18.914Z,73.27
2022-10-13T10:30:22.244Z,73.22
2022-10-13T10:31:26.845Z,73.38
2022-10-13T10:32:34.457Z,73.20
2022-10-13T10:33:40.396Z,73.60
2022-10-13T10:34:43.698Z,73.61
2022-10-13T10:36:04.091Z,73.43
2022-10-13T10:37:08.316Z,73.72
2022-10-13T10:38:15.266Z,73.65
2022-10-13T10:39:36.079Z,74.01
2022-10-13T10:41:00.990Z,73.75
2022-10-13T10:42:03.665Z,73.71
2022-10-13T10:43:23.586Z,74.16
2022-10-13T10:44:26.987Z,74.26
2022-10-13T10:45:30.119Z,74.12
2022-10-13T10:46:51.831Z,74.28
2022-10-13T10:47:55.744Z,74.68
2022-10-13T10:49:00.274Z,75.19
2022-10-13T10:50:02.407Z,75.17
2022-10-13T10:51:05.772Z,75.30
2022-10-13T10:52:08.183Z,75.80
2022-10-13T10:53:12.698Z,75.84
2022-10-13T10:54:20.348Z,75.66
2022-10-13T10:55:27.930Z,76.01
2022-10-13T10:56:30.714Z,75.90
2022-10-13T10:57:36.288Z,75.84
2022-10-13T10:58:41.294Z,76.53
2022-10-13T10:59:42.798Z,76.79
2022-10-13T11:00:51.308Z,77.03
2022-10-13T11:02:11.338Z,76.43
2022-10-13T11:03:38.818Z,76.38
2022-10-13T11:04:43.707Z,75.76
2022-10-13T11:05:57.205Z,75.57
2022-10-13T11:06:58.629Z,75.34
2022-10-13T11:08:00.509Z,74.85
2022-10-13T11:09:02.160Z,74.08
2022-10-13T11:10:04.926Z,73.95
2022-10-13T11:11:37.514Z,73.80
2022-10-13T11:12:52.406Z,74.19
2022-10-13T11:14:06.107Z,73.92
2022-10-13T11:15:11.194Z,73.94
2022-10-13T11:16:30.976Z,74.21
2022-10-13T11:17:38.924Z,73.65
2022-10-13T11:18:59.432Z,73.75
2022-10-13T11:20:04.303Z,73.59
2022-10-13T11:21:05.791Z,73.26
2022-10-13T11:22:07.959Z,73.19
2022-10-13T11:23:14.487Z,73.33
2022-10-13T11:24:34.204Z,73.22
2022-10-13T11:25:42.313Z,73.06
2022-10-13T11:26:43.867Z,73.67
2022-10-13T11:27:46.746Z,74.00
2022-10-13T11:28:48.418Z,74.34
2022-10-13T11:29:54.808Z,74.44
2022-10-13T11:30:57.402Z,74.35
2022-10-13T11:31:58.845Z,74.26
2022-10-13T11:33:09.180Z,73.77
2022-10-13T11:34:25.171Z,73.40
2022-10-13T11:35:26.934Z,73.00
2022-10-13T11:36:37.661Z,73.22
2022-10-13T11:37:39.060Z,73.66
2022-10-13T11:38:40.482Z,73.80
2022-10-13T11:39:47.802Z,74.40
2022-10-13T11:41:04.398Z,73.74
2022-10-13T11:42:10.248Z,73.71
2022-10-13T11:43:14.879Z,72.42
2022-10-13T11:45:32.269Z,72.66
2022-10-13T11:46:52.135Z,71.87
2022-10-13T11:48:07.013Z,72.44
2022-10-13T11:49:30.354Z,72.44
2022-10-13T11:50:44.137Z,72.11
2022-10-13T11:52:05.950Z,72.31
2022-10-13T11:53:13.667Z,72.36
2022-10-13T11:54:27.903Z,71.55
2022-10-13T11:55:29.330Z,71.84
2022-10-13T11:56:33.702Z,71.76
2022-10-13T11:57:35.260Z,72.05
2022-10-13T11:58:41.487Z,72.13
2022-10-13T11:59:45.164Z,72.01
2022-10-13T12:00:52.622Z,71.55
2022-10-13T12:01:57.427Z,71.57
2022-10-13T12:02:58.951Z,72.09
2022-10-13T12:04:12.535Z,71.49
2022-10-13T12:05:19.690Z,71.33
2022-10-13T12:06:25.118Z,71.06
2022-10-13T12:07:26.534Z,70.78
2022-10-13T12:08:28.042Z,70.68
2022-10-13T12:09:29.886Z,70.71
2022-10-13T12:10:35.482Z,70.96
2022-10-13T12:11:37.419Z,70.82
2022-10-13T12:12:38.952Z,70.96
2022-10-13T12:13:41.021Z,71.03
2022-10-13T12:14:47.560Z,70.78
2022-10-13T12:15:49.476Z,70.80
2022-10-13T12:16:57.648Z,70.89
2022-10-13T12:17:59.155Z,70.49
2022-10-13T12:19:16.111Z,70.62
2022-10-13T12:20:21.259Z,70.17
2022-10-13T12:21:22.768Z,70.46
2022-10-13T12:22:24.202Z,71.08
2022-10-13T12:23:26.099Z,71.22
2022-10-13T12:24:28.352Z,71.57
2022-10-13T12:25:30.160Z,71.38
2022-10-13T12:26:34.482Z,71.42
2022-10-13T12:27:49.308Z,71.50
2022-10-13T12:28:52.355Z,71.60
2022-10-13T12:29:53.869Z,71.54
2022-10-13T12:30:56.462Z,71.41
2022-10-13T12:31:58.793Z,71.41
2022-10-13T12:33:00.881Z,71.34
2022-10-13T12:34:02.806Z,71.67
2022-10-13T12:35:17.376Z,71.52
2022-10-13T12:36:19.226Z,71.54
2022-10-13T12:37:21.018Z,71.83
2022-10-13T12:38:22.835Z,71.59
2022-10-13T12:39:25.232Z,72.01
2022-10-13T12:40:26.693Z,72.24
2022-10-13T12:41:34.811Z,71.93
2022-10-13T12:42:36.319Z,71.94
2022-10-13T12:43:37.758Z,71.97
2022-10-13T12:44:39.226Z,72.04
2022-10-13T12:45:40.672Z,71.99
2022-10-13T12:46:42.904Z,71.88
2022-10-13T12:47:44.381Z,71.61
2022-10-13T12:48:45.879Z,71.57
2022-10-13T12:49:47.338Z,71.69
2022-10-13T12:50:48.800Z,71.42
2022-10-13T12:51:51.426Z,71.40
2022-10-13T12:52:53.686Z,71.52
2022-10-13T12:53:55.168Z,71.45
2022-10-13T12:54:57.746Z,71.51
2022-10-13T12:56:00.572Z,71.84
2022-10-13T12:57:04.134Z,71.72
2022-10-13T12:58:05.575Z,71.73
2022-10-13T12:59:13.198Z,71.93
2022-10-13T13:00:19.049Z,72.00
2022-10-13T13:01:23.664Z,72.40
2022-10-13T13:02:29.450Z,72.29
2022-10-13T13:03:30.887Z,72.17
2022-10-13T13:04:40.134Z,72.45
2022-10-13T13:05:50.824Z,72.80
2022-10-13T13:06:56.618Z,72.66
2022-10-13T13:07:58.096Z,72.48
2022-10-13T13:09:17.912Z,72.68
2022-10-13T13:10:19.968Z,72.55
2022-10-13T13:11:22.587Z,72.36
2022-10-13T13:12:26.380Z,72.63
2022-10-13T13:13:27.834Z,72.86
2022-10-13T13:14:39.330Z,72.72
2022-10-13T13:15:41.542Z,72.52
2022-10-13T13:16:43.039Z,72.41
2022-10-13T13:17:57.821Z,72.26
2022-10-13T13:19:00.004Z,72.29
2022-10-13T13:20:01.490Z,72.20
2022-10-13T13:21:06.614Z,72.23
2022-10-13T13:22:08.153Z,72.28
2022-10-13T13:23:09.627Z,72.15
2022-10-13T13:24:21.794Z,72.25
2022-10-13T13:25:29.933Z,72.57
2022-10-13T13:26:31.355Z,72.29
2022-10-13T13:27:34.602Z,72.68
2022-10-13T13:28:36.086Z,72.50
2022-10-13T13:29:38.023Z,72.85
2022-10-13T13:30:39.555Z,73.04
2022-10-13T13:31:40.989Z,72.80
2022-10-13T13:32:42.484Z,72.71
2022-10-13T13:33:43.997Z,72.90
2022-10-13T13:34:46.728Z,72.76
2022-10-13T13:35:49.611Z,72.72
2022-10-13T13:36:51.095Z,73.03
2022-10-13T13:37:53.115Z,73.19
2022-10-13T13:38:54.592Z,73.25
2022-10-13T13:39:56.487Z,73.24
2022-10-13T13:41:00.129Z,73.51
2022-10-13T13:42:05.251Z,73.51
2022-10-13T13:43:08.365Z,73.81
2022-10-13T13:44:09.859Z,73.87
2022-10-13T13:45:14.510Z,73.63